Time;durP1;ratioP1;P1;durP2;ratioP2;P2;SDS_P1;SDS_P2;PMS_P1;PMS_P2;Temp;Humidity;BMP_temperature;BMP_pressure;BME280_temperature;BME280_humidity;BME280_pressure;Samples;Min_cycle;Max_cycle;Signal;HPM_P1;HPM_P2
2023/04/30 00:00:28;;;;;;;10.20;6.60;;;12.70;80.30;;;;;;5049138;28;20222;-74
2023/04/30 00:02:54;;;;;;;10.73;6.23;;;12.80;80.00;;;;;;5051207;28;20247;-73
2023/04/30 00:05:20;;;;;;;15.53;7.03;;;12.90;79.70;;;;;;5049881;28;20176;-72
2023/04/30 00:07:45;;;;;;;12.20;7.40;;;12.90;79.60;;;;;;5050819;28;20411;-74
2023/04/30 00:10:11;;;;;;;10.80;6.90;;;12.80;79.30;;;;;;5030505;28;20234;-73
2023/04/30 00:12:37;;;;;;;9.13;6.10;;;12.80;79.60;;;;;;5050889;28;20187;-74
2023/04/30 00:15:03;;;;;;;9.43;6.03;;;13.00;79.20;;;;;;5049413;28;20180;-73
2023/04/30 00:17:29;;;;;;;10.83;6.33;;;12.80;78.70;;;;;;5048688;28;20489;-74
2023/04/30 00:19:55;;;;;;;12.30;7.03;;;12.60;79.20;;;;;;5043906;28;20455;-73
2023/04/30 00:22:20;;;;;;;10.73;7.10;;;12.60;79.50;;;;;;5051580;28;20177;-73
2023/04/30 00:24:46;;;;;;;13.27;7.60;;;12.60;80.00;;;;;;5048174;28;20213;-73
2023/04/30 00:27:12;;;;;;;13.40;6.37;;;12.60;79.70;;;;;;5050418;28;20199;-73
2023/04/30 00:29:37;;;;;;;10.57;6.00;;;12.60;80.00;;;;;;5052689;28;20446;-76
2023/04/30 00:32:03;;;;;;;12.10;6.63;;;12.70;79.60;;;;;;5056216;28;20192;-73
2023/04/30 00:34:29;;;;;;;11.70;6.87;;;12.70;79.30;;;;;;5060677;28;20321;-73
2023/04/30 00:36:54;;;;;;;10.63;6.60;;;12.80;79.50;;;;;;5062535;28;20572;-72
2023/04/30 00:39:20;;;;;;;12.57;6.67;;;12.70;79.50;;;;;;5060968;28;20211;-73
2023/04/30 00:41:46;;;;;;;10.93;6.40;;;12.70;79.70;;;;;;5064946;28;20185;-74
2023/04/30 00:44:11;;;;;;;10.50;6.07;;;12.80;79.30;;;;;;5054652;28;20286;-71
2023/04/30 00:46:37;;;;;;;11.87;6.67;;;12.90;79.00;;;;;;5031800;28;20219;-72
2023/04/30 00:49:03;;;;;;;10.20;6.80;;;12.70;79.00;;;;;;5050325;28;20298;-71
2023/04/30 00:51:31;;;;;;;11.23;6.20;;;12.70;79.20;;;;;;5048361;28;20196;-72
2023/04/30 00:53:59;;;;;;;10.67;6.80;;;12.70;79.50;;;;;;5036499;28;21044;-71
2023/04/30 00:56:25;;;;;;;10.20;6.83;;;12.60;79.60;;;;;;5037311;28;20469;-71
2023/04/30 00:58:55;;;;;;;10.40;6.37;;;12.60;79.90;;;;;;5053825;28;20469;-72
2023/04/30 01:01:23;;;;;;;12.20;7.20;;;12.70;79.90;;;;;;5054811;28;20189;-74
2023/04/30 01:03:49;;;;;;;12.93;6.60;;;12.70;79.30;;;;;;5050564;28;20447;-73
2023/04/30 01:06:15;;;;;;;11.20;6.50;;;12.60;79.50;;;;;;5054496;28;20427;-73
2023/04/30 01:08:40;;;;;;;13.63;7.00;;;12.50;79.50;;;;;;5038686;28;20469;-73
2023/04/30 01:11:20;;;;;;;13.17;7.53;;;12.60;79.50;;;;;;5057247;28;20185;-73
2023/04/30 01:13:57;;;;;;;11.47;6.80;;;12.60;79.90;;;;;;5037606;28;20203;-73
2023/04/30 01:16:25;;;;;;;15.47;7.10;;;12.70;79.30;;;;;;5055204;28;20473;-74
2023/04/30 01:18:59;;;;;;;11.53;6.23;;;12.80;79.00;;;;;;5048742;28;20973;-73
2023/04/30 01:21:29;;;;;;;11.50;6.60;;;12.80;79.00;;;;;;5053214;28;20431;-74
2023/04/30 01:24:33;;;;;;;11.40;7.23;;;12.70;79.00;;;;;;5034995;28;20416;-74
2023/04/30 01:27:24;;;;;;;12.87;6.70;;;12.70;78.90;;;;;;5052102;28;20579;-72
2023/04/30 01:29:51;;;;;;;11.17;7.37;;;12.80;78.70;;;;;;5043610;28;20462;-73
2023/04/30 01:32:17;;;;;;;11.13;7.43;;;12.70;78.30;;;;;;5054188;28;20780;-73
2023/04/30 01:34:42;;;;;;;16.90;8.67;;;12.50;78.60;;;;;;5053342;28;20441;-74
2023/04/30 01:37:28;;;;;;;13.47;7.10;;;12.50;79.00;;;;;;5049338;28;20218;-72
2023/04/30 01:40:06;;;;;;;14.57;8.40;;;12.40;79.00;;;;;;5047798;28;20205;-73
2023/04/30 01:42:53;;;;;;;11.30;7.10;;;12.40;79.00;;;;;;5056355;28;20411;-72
2023/04/30 01:45:40;;;;;;;13.40;7.47;;;12.40;79.00;;;;;;5036496;28;20506;-73
2023/04/30 01:48:36;;;;;;;15.27;9.20;;;12.40;79.30;;;;;;5051429;28;20427;-73
2023/04/30 01:51:13;;;;;;;16.20;8.50;;;12.50;78.90;;;;;;5062714;28;20423;-72
2023/04/30 01:53:41;;;;;;;19.40;9.50;;;12.30;79.30;;;;;;5059930;28;20426;-72
2023/04/30 01:56:12;;;;;;;14.90;8.67;;;12.20;79.30;;;;;;5043598;28;20485;-73
2023/04/30 01:58:39;;;;;;;15.10;9.20;;;12.20;79.70;;;;;;5056134;28;20478;-73
2023/04/30 02:01:05;;;;;;;14.67;9.03;;;12.30;79.50;;;;;;5058806;28;20428;-73
2023/04/30 02:03:32;;;;;;;21.37;9.73;;;12.30;79.50;;;;;;5059834;28;20434;-72
2023/04/30 02:05:58;;;;;;;15.60;8.13;;;12.40;79.00;;;;;;5056388;28;20212;-72
2023/04/30 02:08:23;;;;;;;16.67;9.00;;;12.20;79.20;;;;;;5041826;28;20490;-74
2023/04/30 02:10:49;;;;;;;17.43;9.73;;;12.20;79.50;;;;;;5047566;28;20678;-73
2023/04/30 02:13:15;;;;;;;17.37;9.30;;;12.30;79.30;;;;;;5063234;28;20240;-72
2023/04/30 02:15:40;;;;;;;13.50;9.17;;;12.20;79.20;;;;;;5063485;28;20204;-73
2023/04/30 02:18:06;;;;;;;15.70;9.50;;;12.30;79.50;;;;;;5061538;28;21080;-72
2023/04/30 02:20:31;;;;;;;14.90;8.73;;;12.30;79.30;;;;;;5061967;28;20547;-73
2023/04/30 02:22:57;;;;;;;16.77;9.77;;;12.30;79.20;;;;;;5061908;28;20200;-73
2023/04/30 02:25:23;;;;;;;14.37;9.47;;;12.40;79.30;;;;;;5060964;28;20255;-73
2023/04/30 02:27:50;;;;;;;12.30;7.70;;;12.40;78.90;;;;;;5060518;28;20433;-73
2023/04/30 02:30:16;;;;;;;15.30;9.07;;;12.50;78.70;;;;;;5050093;28;20181;-72
2023/04/30 02:32:41;;;;;;;16.97;9.93;;;12.50;78.60;;;;;;5039517;28;20609;-73
2023/04/30 02:35:07;;;;;;;17.10;9.43;;;12.50;78.40;;;;;;5056626;28;20846;-73
2023/04/30 02:37:32;;;;;;;16.17;9.43;;;12.50;78.10;;;;;;5056736;28;20208;-74
2023/04/30 02:39:58;;;;;;;18.57;10.87;;;12.50;78.30;;;;;;5053788;28;20204;-73
2023/04/30 02:42:24;;;;;;;19.03;10.50;;;12.50;78.40;;;;;;5055664;28;20181;-74
2023/04/30 02:44:50;;;;;;;17.77;9.57;;;12.40;78.10;;;;;;5058187;28;20196;-73
2023/04/30 02:47:15;;;;;;;18.57;10.03;;;12.40;78.30;;;;;;5061043;28;20193;-73
2023/04/30 02:49:41;;;;;;;16.93;10.13;;;12.50;78.10;;;;;;5057031;28;20227;-73
2023/04/30 02:52:08;;;;;;;13.83;8.83;;;12.40;78.00;;;;;;5062662;28;20193;-72
2023/04/30 02:54:33;;;;;;;21.60;10.43;;;12.40;78.30;;;;;;5061550;28;20189;-73
2023/04/30 02:56:59;;;;;;;20.50;10.80;;;12.40;78.40;;;;;;5042776;28;20454;-71
2023/04/30 02:59:26;;;;;;;17.83;10.10;;;12.20;78.70;;;;;;5059876;28;20694;-72
2023/04/30 03:01:51;;;;;;;18.93;10.40;;;12.10;79.20;;;;;;5057790;28;20182;-72
2023/04/30 03:04:17;;;;;;;19.30;9.83;;;12.10;79.50;;;;;;5060033;28;20475;-73
2023/04/30 03:06:42;;;;;;;17.97;10.17;;;12.20;79.20;;;;;;5059573;28;20226;-73
2023/04/30 03:09:08;;;;;;;19.33;10.00;;;12.30;79.00;;;;;;5058940;28;20212;-73
2023/04/30 03:11:36;;;;;;;14.80;9.53;;;12.30;78.90;;;;;;5060569;28;20189;-72
2023/04/30 03:14:02;;;;;;;22.63;11.53;;;12.20;79.00;;;;;;5058007;28;20189;-74
2023/04/30 03:16:29;;;;;;;18.90;10.03;;;12.10;79.20;;;;;;5056804;28;20574;-72
2023/04/30 03:18:55;;;;;;;19.93;10.03;;;12.10;79.50;;;;;;5038737;28;20477;-74
2023/04/30 03:21:21;;;;;;;18.00;10.07;;;12.20;79.50;;;;;;5061826;28;20501;-73
2023/04/30 03:23:46;;;;;;;16.07;9.50;;;12.20;79.20;;;;;;5062158;28;20180;-72
2023/04/30 03:26:12;;;;;;;20.67;9.83;;;12.20;79.30;;;;;;5059429;28;20299;-73
2023/04/30 03:28:37;;;;;;;18.90;10.43;;;12.20;79.30;;;;;;5049325;28;20219;-74
2023/04/30 03:31:04;;;;;;;18.53;9.40;;;12.20;79.30;;;;;;5051291;28;20192;-74
2023/04/30 03:33:33;;;;;;;18.83;10.13;;;12.20;79.50;;;;;;5050859;28;20181;-73
2023/04/30 03:35:58;;;;;;;16.27;9.70;;;12.20;79.70;;;;;;5050644;28;20463;-73
2023/04/30 03:38:24;;;;;;;16.03;9.43;;;12.20;79.90;;;;;;5048358;28;20905;-74
2023/04/30 03:40:50;;;;;;;20.13;9.97;;;12.20;79.90;;;;;;5051588;28;20212;-75
2023/04/30 03:43:16;;;;;;;16.83;10.00;;;12.20;79.90;;;;;;5050998;28;20461;-74
2023/04/30 03:45:41;;;;;;;16.93;10.10;;;12.20;80.00;;;;;;5049734;28;20220;-73
2023/04/30 03:48:07;;;;;;;16.10;9.50;;;12.20;79.90;;;;;;5050425;28;20215;-74
2023/04/30 03:50:32;;;;;;;21.80;10.70;;;12.20;79.90;;;;;;5049278;28;20199;-74
2023/04/30 03:52:58;;;;;;;22.00;12.07;;;12.20;80.00;;;;;;5050467;28;20571;-74
2023/04/30 03:55:24;;;;;;;22.00;10.83;;;12.20;80.00;;;;;;5030562;28;20195;-74
2023/04/30 03:57:50;;;;;;;23.70;10.03;;;12.10;80.30;;;;;;5051804;28;20203;-73
2023/04/30 04:00:16;;;;;;;22.47;11.87;;;12.20;80.50;;;;;;5038441;28;20495;-75
2023/04/30 04:02:41;;;;;;;18.77;11.50;;;12.10;80.30;;;;;;5051499;28;20246;-73
2023/04/30 04:05:07;;;;;;;18.30;10.27;;;12.10;80.30;;;;;;5058457;28;20188;-73
2023/04/30 04:07:33;;;;;;;18.03;9.50;;;12.10;80.50;;;;;;5056849;28;20197;-74
2023/04/30 04:09:58;;;;;;;16.43;10.07;;;12.10;80.50;;;;;;5048109;28;20296;-72
2023/04/30 04:12:24;;;;;;;20.50;10.53;;;12.10;80.50;;;;;;5044116;28;20192;-74
2023/04/30 04:14:49;;;;;;;19.27;10.23;;;12.20;80.50;;;;;;5050860;28;20192;-74
2023/04/30 04:17:15;;;;;;;20.23;10.50;;;12.10;80.30;;;;;;5051359;28;20212;-74
2023/04/30 04:19:41;;;;;;;18.53;10.17;;;12.20;80.50;;;;;;5029000;28;20347;-72
2023/04/30 04:22:06;;;;;;;13.87;8.70;;;12.20;80.50;;;;;;5052408;28;20180;-74
2023/04/30 04:24:32;;;;;;;17.27;9.97;;;12.20;80.60;;;;;;5034172;28;20189;-74
2023/04/30 04:26:58;;;;;;;18.27;10.67;;;12.20;80.60;;;;;;5050990;28;20690;-75
2023/04/30 04:29:24;;;;;;;25.50;10.37;;;12.10;80.50;;;;;;5048831;28;20465;-74
2023/04/30 04:31:50;;;;;;;15.67;9.23;;;12.10;80.90;;;;;;5053898;28;20509;-75
2023/04/30 04:34:16;;;;;;;20.33;9.40;;;12.10;80.90;;;;;;5035107;28;20894;-73
2023/04/30 04:36:41;;;;;;;16.60;8.70;;;12.10;80.80;;;;;;5052974;28;20477;-73
2023/04/30 04:39:07;;;;;;;17.37;9.83;;;12.10;80.90;;;;;;5047920;28;20204;-74
2023/04/30 04:41:34;;;;;;;19.87;9.80;;;12.10;80.90;;;;;;5051190;28;20197;-73
2023/04/30 04:44:03;;;;;;;15.53;8.30;;;12.10;80.90;;;;;;5048438;28;20258;-74
2023/04/30 04:46:30;;;;;;;15.20;9.23;;;12.10;81.20;;;;;;5052302;28;20502;-74
2023/04/30 04:48:56;;;;;;;16.70;8.60;;;12.10;81.20;;;;;;5049798;28;20455;-73
2023/04/30 04:51:22;;;;;;;14.60;8.53;;;12.00;81.50;;;;;;5048859;28;20431;-75
2023/04/30 04:53:47;;;;;;;15.70;9.30;;;12.10;81.50;;;;;;5050683;28;20419;-74
2023/04/30 04:56:13;;;;;;;13.77;8.73;;;12.00;81.10;;;;;;5050309;28;20630;-75
2023/04/30 04:58:40;;;;;;;15.80;8.83;;;12.10;81.20;;;;;;5047433;28;20208;-76
2023/04/30 05:01:06;;;;;;;20.07;9.73;;;12.10;80.90;;;;;;5047659;28;20188;-74
2023/04/30 05:03:35;;;;;;;17.90;9.20;;;12.00;80.80;;;;;;5049447;28;20433;-76
2023/04/30 05:06:01;;;;;;;16.87;9.43;;;12.10;80.90;;;;;;5031623;28;20597;-75
2023/04/30 05:08:27;;;;;;;15.40;9.43;;;12.10;80.80;;;;;;5029992;28;20540;-74
2023/04/30 05:10:53;;;;;;;14.50;8.13;;;12.10;80.80;;;;;;5045626;28;20816;-73
2023/04/30 05:13:18;;;;;;;16.57;10.00;;;12.10;80.80;;;;;;5049326;28;20609;-73
2023/04/30 05:15:44;;;;;;;18.50;11.10;;;12.10;80.80;;;;;;5048562;28;22069;-72
2023/04/30 05:18:10;;;;;;;18.20;10.10;;;12.10;81.10;;;;;;5047752;28;20204;-73
2023/04/30 05:20:35;;;;;;;20.30;11.33;;;12.10;81.10;;;;;;5050578;28;20251;-74
2023/04/30 05:23:02;;;;;;;16.70;10.20;;;12.10;81.10;;;;;;5051866;28;20192;-74
2023/04/30 05:25:28;;;;;;;19.80;9.97;;;12.20;81.10;;;;;;5052664;28;20612;-73
2023/04/30 05:27:54;;;;;;;17.27;9.83;;;12.20;81.10;;;;;;5049955;28;20434;-72
2023/04/30 05:30:19;;;;;;;20.27;9.77;;;12.30;80.90;;;;;;5050843;28;20867;-74
2023/04/30 05:32:49;;;;;;;16.60;10.27;;;12.30;80.80;;;;;;5049876;28;20181;-75
2023/04/30 05:35:15;;;;;;;19.10;11.40;;;12.40;80.60;;;;;;5050269;28;20188;-74
2023/04/30 05:37:41;;;;;;;16.30;9.90;;;12.40;80.60;;;;;;5052623;28;20477;-74
2023/04/30 05:40:07;;;;;;;18.93;10.00;;;12.40;80.20;;;;;;5050399;28;20957;-75
2023/04/30 05:42:33;;;;;;;21.43;10.80;;;12.50;78.70;;;;;;5052148;28;20552;-75
2023/04/30 05:44:59;;;;;;;15.27;9.30;;;12.30;77.60;;;;;;5052125;28;20415;-74
2023/04/30 05:47:24;;;;;;;17.23;10.60;;;12.30;78.10;;;;;;5056997;28;20181;-75
2023/04/30 05:49:50;;;;;;;18.93;10.33;;;12.50;78.00;;;;;;5057946;28;20224;-73
2023/04/30 05:52:16;;;;;;;18.73;11.03;;;12.40;77.80;;;;;;5060163;28;20639;-74
2023/04/30 05:54:42;;;;;;;21.60;11.70;;;12.30;77.40;;;;;;5057951;28;20840;-74
2023/04/30 05:57:08;;;;;;;19.13;10.97;;;12.10;77.80;;;;;;5057651;28;20512;-75
2023/04/30 05:59:33;;;;;;;19.17;10.30;;;11.90;78.90;;;;;;5051352;28;20882;-75
2023/04/30 06:01:59;;;;;;;21.00;10.30;;;11.90;79.50;;;;;;5060011;28;20701;-73
2023/04/30 06:04:25;;;;;;;22.23;10.63;;;12.10;79.20;;;;;;5060787;28;20185;-75
2023/04/30 06:06:50;;;;;;;18.20;9.90;;;12.20;78.70;;;;;;5058020;28;20679;-77
2023/04/30 06:09:16;;;;;;;18.10;11.00;;;12.30;78.60;;;;;;5036091;28;20204;-76
2023/04/30 06:11:41;;;;;;;17.17;10.40;;;12.40;78.00;;;;;;5057836;28;20275;-75
2023/04/30 06:14:07;;;;;;;25.57;11.17;;;12.30;78.00;;;;;;5054673;28;20675;-74
2023/04/30 06:16:33;;;;;;;16.53;9.97;;;12.50;77.60;;;;;;5053856;28;20219;-75
2023/04/30 06:18:58;;;;;;;25.03;11.37;;;12.60;77.40;;;;;;5048841;28;20251;-76
2023/04/30 06:21:24;;;;;;;20.53;9.60;;;12.80;76.20;;;;;;5051781;28;20758;-74
2023/04/30 06:23:51;;;;;;;21.40;11.83;;;12.70;76.20;;;;;;5051450;28;20292;-75
2023/04/30 06:26:20;;;;;;;17.97;10.93;;;12.70;75.80;;;;;;5034435;28;20908;-76
2023/04/30 06:28:45;;;;;;;23.10;11.77;;;12.70;75.90;;;;;;5046587;28;20503;-75
2023/04/30 06:31:11;;;;;;;23.90;10.30;;;12.50;75.90;;;;;;5050099;28;20462;-76
2023/04/30 06:33:37;;;;;;;17.93;11.13;;;12.30;77.10;;;;;;5051932;28;20221;-75
2023/04/30 06:36:03;;;;;;;17.57;11.27;;;12.40;76.70;;;;;;5056182;28;20531;-75
2023/04/30 06:38:29;;;;;;;17.43;11.13;;;12.30;77.30;;;;;;5055923;28;20216;-75
2023/04/30 06:40:54;;;;;;;21.97;11.27;;;12.40;77.00;;;;;;5055754;28;20498;-75
2023/04/30 06:43:20;;;;;;;15.20;10.97;;;12.60;76.50;;;;;;5052251;28;20279;-74
2023/04/30 06:45:46;;;;;;;16.90;9.80;;;12.60;75.20;;;;;;5051837;28;20172;-75
2023/04/30 06:48:11;;;;;;;16.00;9.60;;;12.80;75.10;;;;;;5048793;28;20200;-74
2023/04/30 06:50:43;;;;;;;17.23;9.70;;;12.80;74.30;;;;;;5051399;28;20192;-74
2023/04/30 06:53:10;;;;;;;17.50;10.07;;;12.90;74.30;;;;;;5053432;28;20227;-74
2023/04/30 06:55:35;;;;;;;21.20;11.53;;;12.90;73.90;;;;;;5053500;28;20510;-74
2023/04/30 06:58:01;;;;;;;15.57;10.40;;;12.90;73.90;;;;;;5032061;28;20498;-74
2023/04/30 07:00:27;;;;;;;17.10;11.00;;;13.00;74.00;;;;;;5051182;28;20192;-76
2023/04/30 07:02:52;;;;;;;17.60;9.77;;;12.90;74.00;;;;;;5051160;28;20671;-73
2023/04/30 07:05:18;;;;;;;15.67;10.07;;;13.10;73.50;;;;;;5050874;28;20419;-75
2023/04/30 07:07:44;;;;;;;17.80;9.57;;;13.20;73.30;;;;;;5051617;28;20185;-75
2023/04/30 07:10:09;;;;;;;14.60;9.10;;;13.30;73.20;;;;;;5049635;28;20208;-74
2023/04/30 07:12:35;;;;;;;18.97;9.63;;;13.10;73.20;;;;;;5051807;28;20180;-74
2023/04/30 07:15:02;;;;;;;17.97;10.37;;;13.10;73.60;;;;;;5055417;28;20189;-72
2023/04/30 07:17:28;;;;;;;20.80;10.40;;;13.30;73.30;;;;;;5058964;28;20273;-75
2023/04/30 07:19:53;;;;;;;15.37;9.60;;;13.20;73.30;;;;;;5056283;28;20553;-73
2023/04/30 07:22:19;;;;;;;14.30;8.70;;;13.30;73.30;;;;;;5052565;28;20780;-74
2023/04/30 07:24:44;;;;;;;19.23;11.13;;;13.40;72.60;;;;;;5056917;28;20235;-74
2023/04/30 07:27:10;;;;;;;19.00;10.07;;;13.20;72.00;;;;;;5050308;28;20184;-74
2023/04/30 07:29:36;;;;;;;12.93;8.70;;;13.20;72.90;;;;;;5052435;28;20248;-74
2023/04/30 07:32:01;;;;;;;17.80;9.30;;;13.40;72.30;;;;;;5054818;28;20274;-74
2023/04/30 07:34:27;;;;;;;16.30;9.10;;;13.50;72.10;;;;;;5050982;28;20226;-72
2023/04/30 07:36:53;;;;;;;23.53;9.17;;;13.50;71.60;;;;;;5051317;28;20683;-74
2023/04/30 07:39:18;;;;;;;20.03;9.80;;;13.40;71.70;;;;;;5049550;28;20200;-75
2023/04/30 07:41:44;;;;;;;12.93;8.60;;;13.30;72.00;;;;;;5050156;28;20411;-74
2023/04/30 07:44:11;;;;;;;16.80;9.30;;;13.50;71.70;;;;;;5049965;28;20192;-73
2023/04/30 07:46:36;;;;;;;15.23;9.40;;;13.50;71.70;;;;;;5049801;28;20461;-75
2023/04/30 07:49:02;;;;;;;13.40;8.87;;;13.60;71.40;;;;;;5047872;28;20512;-73
2023/04/30 07:51:28;;;;;;;12.20;7.70;;;13.70;70.70;;;;;;5049023;28;20213;-75
2023/04/30 07:53:54;;;;;;;15.17;7.90;;;13.70;70.40;;;;;;5050086;28;20455;-75
2023/04/30 07:56:20;;;;;;;10.63;8.00;;;13.80;69.90;;;;;;5051211;28;20207;-75
2023/04/30 07:58:46;;;;;;;14.00;8.53;;;13.90;69.80;;;;;;5047963;28;20231;-75
2023/04/30 08:01:11;;;;;;;14.70;8.37;;;14.00;69.40;;;;;;5051024;28;20411;-75
2023/04/30 08:03:37;;;;;;;12.30;7.80;;;14.00;69.10;;;;;;5050352;28;20723;-75
2023/04/30 08:06:04;;;;;;;10.63;7.63;;;14.00;68.90;;;;;;5050931;28;20186;-74
2023/04/30 08:08:30;;;;;;;14.23;8.80;;;14.00;68.50;;;;;;5044523;28;20351;-76
2023/04/30 08:10:55;;;;;;;12.57;8.23;;;14.00;68.00;;;;;;5051115;28;20434;-76
2023/04/30 08:13:21;;;;;;;12.57;7.07;;;14.00;68.20;;;;;;5049954;28;20218;-76
2023/04/30 08:15:46;;;;;;;14.03;7.50;;;14.10;68.20;;;;;;5045574;28;20184;-74
2023/04/30 08:18:12;;;;;;;10.90;7.80;;;14.20;68.20;;;;;;5047148;28;20885;-74
2023/04/30 08:20:38;;;;;;;10.50;6.93;;;14.30;67.30;;;;;;5048925;28;20196;-75
2023/04/30 08:23:04;;;;;;;12.10;7.00;;;14.40;67.50;;;;;;5051649;28;20188;-75
2023/04/30 08:25:30;;;;;;;10.17;6.33;;;14.50;67.70;;;;;;5048546;28;20562;-74
2023/04/30 08:27:56;;;;;;;10.37;7.00;;;14.60;67.60;;;;;;5051430;28;20428;-73
2023/04/30 08:30:22;;;;;;;12.10;7.10;;;14.70;66.90;;;;;;5048658;28;20443;-72
2023/04/30 08:32:48;;;;;;;10.40;6.87;;;14.80;66.70;;;;;;5050574;28;20188;-75
2023/04/30 08:35:15;;;;;;;9.53;6.77;;;14.90;66.70;;;;;;5051554;28;20217;-74
2023/04/30 08:37:41;;;;;;;14.10;6.53;;;14.80;67.00;;;;;;5051628;28;21166;-76
2023/04/30 08:40:08;;;;;;;10.20;6.50;;;14.80;67.20;;;;;;5048169;28;20491;-74
2023/04/30 08:42:36;;;;;;;8.17;6.17;;;14.80;66.90;;;;;;5052178;28;20188;-75
2023/04/30 08:45:03;;;;;;;9.60;5.87;;;14.70;66.60;;;;;;5054736;28;20796;-73
2023/04/30 08:47:30;;;;;;;8.07;5.20;;;14.90;65.60;;;;;;5058051;28;20421;-73
2023/04/30 08:49:55;;;;;;;7.13;5.30;;;15.10;64.50;;;;;;5056257;28;20518;-73
2023/04/30 08:52:21;;;;;;;8.30;5.10;;;15.30;63.90;;;;;;5060268;28;20456;-73
2023/04/30 08:54:49;;;;;;;6.00;4.63;;;15.40;62.50;;;;;;5063899;28;20262;-71
2023/04/30 08:57:14;;;;;;;6.50;4.23;;;15.50;61.50;;;;;;5052335;28;20481;-73
2023/04/30 08:59:40;;;;;;;6.70;4.20;;;15.40;61.70;;;;;;5055494;28;20972;-75
2023/04/30 09:02:06;;;;;;;11.40;4.83;;;15.60;62.00;;;;;;5061803;28;20202;-75
2023/04/30 09:04:32;;;;;;;8.27;4.63;;;15.70;61.60;;;;;;5061278;28;20250;-73
2023/04/30 09:07:00;;;;;;;7.77;4.30;;;15.90;60.70;;;;;;5060686;28;20450;-74
2023/04/30 09:09:29;;;;;;;8.07;4.20;;;15.80;60.90;;;;;;5057579;28;20469;-74
2023/04/30 09:12:16;;;;;;;7.60;5.10;;;15.90;61.20;;;;;;5055192;28;20944;-74
2023/04/30 09:15:00;;;;;;;7.40;4.60;;;16.10;60.40;;;;;;5054153;28;20422;-74
2023/04/30 09:17:26;;;;;;;7.07;5.27;;;16.10;60.30;;;;;;5053645;28;20520;-75
2023/04/30 09:19:52;;;;;;;6.67;4.80;;;16.20;60.60;;;;;;5045203;28;20536;-75
2023/04/30 09:22:20;;;;;;;7.17;4.80;;;16.50;60.40;;;;;;5052480;28;20196;-74
2023/04/30 09:24:48;;;;;;;8.70;4.57;;;16.60;58.90;;;;;;5052723;28;20568;-74
2023/04/30 09:27:18;;;;;;;9.67;4.97;;;16.70;59.50;;;;;;5053095;28;20453;-74
2023/04/30 09:29:45;;;;;;;6.40;4.43;;;16.70;58.90;;;;;;5048895;28;20519;-75
2023/04/30 09:32:11;;;;;;;6.67;3.63;;;16.50;58.10;;;;;;5053088;28;20492;-74
2023/04/30 09:34:37;;;;;;;9.00;4.77;;;16.50;57.80;;;;;;5052953;28;20435;-73
2023/04/30 09:37:03;;;;;;;6.70;4.20;;;16.50;58.20;;;;;;5057234;28;20579;-74
2023/04/30 09:39:29;;;;;;;6.50;4.30;;;16.70;57.70;;;;;;5055670;28;20201;-74
2023/04/30 09:42:08;;;;;;;6.00;4.70;;;16.80;57.70;;;;;;5056265;28;20183;-75
2023/04/30 09:44:39;;;;;;;5.93;3.67;;;16.80;57.00;;;;;;5049867;28;20489;-74
2023/04/30 09:47:19;;;;;;;5.33;3.77;;;16.50;57.20;;;;;;5043693;28;21017;-74
2023/04/30 09:49:52;;;;;;;5.80;3.80;;;16.60;57.30;;;;;;5051422;28;20455;-74
2023/04/30 09:52:18;;;;;;;5.40;4.00;;;16.40;56.50;;;;;;5049446;28;20461;-74
2023/04/30 09:54:45;;;;;;;6.73;3.80;;;16.40;56.90;;;;;;5046163;28;20485;-74
2023/04/30 09:57:14;;;;;;;4.87;3.40;;;16.50;57.20;;;;;;5048781;28;20820;-75
2023/04/30 09:59:47;;;;;;;4.90;3.93;;;16.80;56.20;;;;;;5033190;28;20455;-75
2023/04/30 10:02:15;;;;;;;6.73;3.47;;;16.80;55.40;;;;;;5052479;28;20422;-75
2023/04/30 10:04:43;;;;;;;5.00;3.50;;;16.80;56.10;;;;;;5054799;28;20423;-73
2023/04/30 10:07:13;;;;;;;5.33;3.40;;;16.90;55.70;;;;;;5055478;28;20516;-73
2023/04/30 10:09:42;;;;;;;6.43;3.97;;;16.90;54.90;;;;;;5051699;28;20515;-74
2023/04/30 10:12:14;;;;;;;4.00;3.60;;;17.00;55.30;;;;;;5046428;28;20418;-75
2023/04/30 10:14:46;;;;;;;4.60;3.70;;;17.10;55.20;;;;;;5042451;28;20825;-74
2023/04/30 10:17:15;;;;;;;7.23;3.60;;;17.20;54.90;;;;;;5034087;28;20535;-74
2023/04/30 10:19:45;;;;;;;6.13;3.70;;;17.30;54.40;;;;;;5048514;28;20448;-75
2023/04/30 10:22:11;;;;;;;4.87;3.57;;;17.30;54.40;;;;;;5051711;28;20419;-75
2023/04/30 10:24:37;;;;;;;6.80;4.20;;;17.40;53.40;;;;;;5049592;28;20848;-74
2023/04/30 10:27:03;;;;;;;4.70;3.43;;;17.40;53.60;;;;;;5031105;28;20458;-74
2023/04/30 10:29:29;;;;;;;4.70;3.40;;;17.40;52.90;;;;;;5048832;28;20523;-73
2023/04/30 10:31:55;;;;;;;4.63;3.93;;;17.30;52.80;;;;;;5051907;28;20509;-74
2023/04/30 10:34:53;;;;;;;7.07;3.60;;;17.10;53.60;;;;;;5051359;28;20667;-73
2023/04/30 10:37:49;;;;;;;5.07;3.43;;;17.20;53.20;;;;;;5049207;28;20853;-75
2023/04/30 10:40:15;;;;;;;4.20;3.20;;;17.40;53.80;;;;;;5048556;28;20469;-74
2023/04/30 10:42:53;;;;;;;4.50;3.27;;;17.50;52.80;;;;;;5033475;28;20831;-74
2023/04/30 10:45:37;;;;;;;6.23;4.60;;;17.40;53.20;;;;;;5047478;28;20200;-75
2023/04/30 10:48:03;;;;;;;8.23;4.77;;;17.10;54.20;;;;;;5029564;28;20469;-73
2023/04/30 10:50:29;;;;;;;6.93;4.60;;;17.10;54.80;;;;;;5051442;28;20423;-73
2023/04/30 10:53:02;;;;;;;9.13;5.03;;;16.90;55.40;;;;;;5051014;28;20479;-74
2023/04/30 10:55:29;;;;;;;7.60;4.30;;;16.90;55.70;;;;;;5050969;28;20487;-74
2023/04/30 10:57:57;;;;;;;6.07;4.70;;;17.00;54.60;;;;;;5051214;28;21209;-74
2023/04/30 11:00:28;;;;;;;8.70;4.80;;;17.10;55.00;;;;;;5048844;28;20433;-75
2023/04/30 11:03:02;;;;;;;7.27;4.80;;;17.10;54.80;;;;;;5049617;28;20419;-74
2023/04/30 11:05:37;;;;;;;5.80;4.37;;;17.10;55.00;;;;;;5050764;28;20415;-73
2023/04/30 11:08:03;;;;;;;6.10;5.10;;;17.20;54.80;;;;;;5050089;28;20417;-73
2023/04/30 11:10:32;;;;;;;5.20;4.50;;;17.20;54.40;;;;;;5050925;28;20423;-75
2023/04/30 11:13:03;;;;;;;6.30;4.83;;;17.00;54.60;;;;;;5048637;28;20511;-75
2023/04/30 11:15:47;;;;;;;6.30;4.97;;;16.80;55.40;;;;;;5048901;28;20423;-76
2023/04/30 11:18:13;;;;;;;7.03;4.43;;;17.00;55.30;;;;;;5043741;28;21310;-74
2023/04/30 11:20:52;;;;;;;6.90;4.80;;;17.20;55.00;;;;;;5026057;28;20408;-75
2023/04/30 11:23:22;;;;;;;6.10;4.50;;;17.30;54.50;;;;;;5047167;28;20415;-75
2023/04/30 11:25:48;;;;;;;6.90;4.73;;;17.40;53.40;;;;;;5051816;28;20783;-74
2023/04/30 11:28:19;;;;;;;5.57;4.43;;;17.20;53.40;;;;;;5051155;28;20442;-73
2023/04/30 11:30:57;;;;;;;5.93;4.03;;;17.30;53.80;;;;;;5033901;28;21014;-73
2023/04/30 11:33:24;;;;;;;10.30;4.83;;;17.40;53.60;;;;;;5051403;28;20439;-75
2023/04/30 11:35:51;;;;;;;7.33;4.50;;;17.40;53.20;;;;;;5054581;28;21062;-74
2023/04/30 11:38:23;;;;;;;6.23;4.37;;;17.40;53.60;;;;;;5050248;28;21559;-73
2023/04/30 11:40:50;;;;;;;6.00;4.53;;;17.40;54.00;;;;;;5045838;28;20423;-73
2023/04/30 11:43:26;;;;;;;6.43;5.30;;;17.40;54.10;;;;;;5054236;28;20444;-75
2023/04/30 11:46:04;;;;;;;6.90;4.97;;;17.40;54.20;;;;;;5050139;28;20416;-72
2023/04/30 11:48:32;;;;;;;8.50;4.80;;;17.30;54.60;;;;;;5045786;28;20872;-74
2023/04/30 11:50:57;;;;;;;4.47;4.20;;;17.30;54.90;;;;;;5051050;28;20493;-74
2023/04/30 11:53:28;;;;;;;8.83;4.60;;;17.30;54.50;;;;;;5031442;28;20517;-74
2023/04/30 11:55:54;;;;;;;7.00;5.00;;;17.50;54.40;;;;;;5050895;28;20177;-75
2023/04/30 11:58:21;;;;;;;6.90;4.13;;;17.40;53.70;;;;;;5048036;28;20455;-73
2023/04/30 12:00:47;;;;;;;6.77;4.10;;;17.50;54.00;;;;;;5049915;28;20509;-75
2023/04/30 12:03:16;;;;;;;6.93;4.57;;;17.70;53.80;;;;;;5051058;28;20423;-73
2023/04/30 12:05:41;;;;;;;5.60;4.30;;;17.90;52.50;;;;;;5048514;28;20528;-75
2023/04/30 12:08:08;;;;;;;5.03;3.90;;;17.90;52.20;;;;;;5049738;28;20526;-74
2023/04/30 12:10:34;;;;;;;6.13;4.13;;;17.90;52.50;;;;;;5032814;28;20189;-73
2023/04/30 12:13:01;;;;;;;6.60;4.17;;;17.90;52.20;;;;;;5050347;28;20434;-74
2023/04/30 12:15:27;;;;;;;6.77;4.20;;;17.80;53.20;;;;;;5033187;28;20514;-74
2023/04/30 12:17:55;;;;;;;5.27;3.90;;;17.70;52.20;;;;;;5048387;28;20467;-74
2023/04/30 12:20:22;;;;;;;5.47;3.90;;;17.60;51.80;;;;;;5044690;28;20467;-73
2023/04/30 12:22:48;;;;;;;5.40;4.17;;;17.50;52.60;;;;;;5051190;28;20424;-74
2023/04/30 12:25:15;;;;;;;6.20;4.20;;;17.70;52.80;;;;;;5056652;28;20423;-74
2023/04/30 12:28:01;;;;;;;6.30;4.07;;;17.60;52.20;;;;;;5056287;28;20442;-74
2023/04/30 12:30:26;;;;;;;7.60;4.33;;;17.60;52.80;;;;;;5054809;28;20452;-75
2023/04/30 12:32:55;;;;;;;4.80;3.70;;;17.80;52.80;;;;;;5061191;28;20424;-73
2023/04/30 12:35:22;;;;;;;5.83;4.30;;;17.70;53.00;;;;;;5052478;28;20189;-73
2023/04/30 12:37:50;;;;;;;5.40;4.10;;;17.60;53.00;;;;;;5045787;28;20469;-73
2023/04/30 12:40:20;;;;;;;5.60;3.73;;;17.70;53.20;;;;;;5036098;28;20535;-74